sensor_id;sensor_type;location;lat;lon;timestamp;pressure;altitude;pressure_sealevel;temperature;humidity
17373;BME280;8803;48.116;11.590;2024-03-23T00:56:14;95014.23;;;14.14;71.88
17373;BME280;8803;48.116;11.590;2024-03-23T01:00:32;95012.42;;;14.10;72.74
17373;BME280;8803;48.116;11.590;2024-03-23T01:04:51;94999.38;;;14.07;72.12
17373;BME280;8803;48.116;11.590;2024-03-23T01:09:11;95001.05;;;14.08;71.55
17373;BME280;8803;48.116;11.590;2024-03-23T01:13:34;94983.63;;;14.12;67.75
17373;BME280;8803;48.116;11.590;2024-03-23T01:15:39;94986.52;;;14.07;69.35
17373;BME280;8803;48.116;11.590;2024-03-23T01:19:57;94980.61;;;14.11;71.52
17373;BME280;8803;48.116;11.590;2024-03-23T01:24:19;94979.27;;;14.11;71.61
17373;BME280;8803;48.116;11.590;2024-03-23T01:28:39;94978.59;;;14.13;71.95
17373;BME280;8803;48.116;11.590;2024-03-23T01:32:58;94972.74;;;14.14;71.81
17373;BME280;8803;48.116;11.590;2024-03-23T01:37:15;94969.87;;;14.15;71.32
17373;BME280;8803;48.116;11.590;2024-03-23T01:41:33;94970.22;;;14.16;71.10
17373;BME280;8803;48.116;11.590;2024-03-23T01:45:53;94964.03;;;14.16;70.98
17373;BME280;8803;48.116;11.590;2024-03-23T01:50:12;94955.34;;;14.14;70.95
17373;BME280;8803;48.116;11.590;2024-03-23T01:54:32;94953.34;;;14.12;70.14
17373;BME280;8803;48.116;11.590;2024-03-23T02:01:07;94943.97;;;14.12;70.57
17373;BME280;8803;48.116;11.590;2024-03-23T02:05:42;94944.81;;;14.12;70.43
17373;BME280;8803;48.116;11.590;2024-03-23T02:10:02;94934.98;;;14.09;70.59
17373;BME280;8803;48.116;11.590;2024-03-23T02:14:23;94932.30;;;14.09;70.05
17373;BME280;8803;48.116;11.590;2024-03-23T02:18:42;94926.76;;;14.10;69.66
17373;BME280;8803;48.116;11.590;2024-03-23T02:23:00;94923.73;;;14.09;69.13
17373;BME280;8803;48.116;11.590;2024-03-23T02:27:20;94918.73;;;14.10;70.03
17373;BME280;8803;48.116;11.590;2024-03-23T02:31:37;94918.08;;;14.08;70.08
17373;BME280;8803;48.116;11.590;2024-03-23T02:35:58;94914.91;;;14.09;69.37
17373;BME280;8803;48.116;11.590;2024-03-23T02:40:17;94908.05;;;14.06;70.21
17373;BME280;8803;48.116;11.590;2024-03-23T02:44:35;94898.34;;;14.05;70.33
17373;BME280;8803;48.116;11.590;2024-03-23T02:48:57;94888.66;;;14.04;70.35
17373;BME280;8803;48.116;11.590;2024-03-23T02:53:17;94882.66;;;14.02;70.03
17373;BME280;8803;48.116;11.590;2024-03-23T02:57:36;94875.62;;;14.01;70.39
17373;BME280;8803;48.116;11.590;2024-03-23T03:01:53;94878.32;;;13.97;70.61
17373;BME280;8803;48.116;11.590;2024-03-23T03:06:12;94883.36;;;13.96;70.75
17373;BME280;8803;48.116;11.590;2024-03-23T03:10:32;94884.54;;;13.94;70.96
17373;BME280;8803;48.116;11.590;2024-03-23T03:14:53;94880.02;;;13.90;70.12
17373;BME280;8803;48.116;11.590;2024-03-23T03:19:10;94871.71;;;13.85;69.97
17373;BME280;8803;48.116;11.590;2024-03-23T03:23:27;94864.52;;;13.82;70.74
17373;BME280;8803;48.116;11.590;2024-03-23T03:27:44;94863.71;;;13.81;69.62
17373;BME280;8803;48.116;11.590;2024-03-23T03:32:05;94857.88;;;13.74;69.81
17373;BME280;8803;48.116;11.590;2024-03-23T03:36:24;94861.61;;;13.69;70.54
17373;BME280;8803;48.116;11.590;2024-03-23T03:40:44;94858.12;;;13.64;70.60
17373;BME280;8803;48.116;11.590;2024-03-23T03:45:01;94848.13;;;13.58;71.42
17373;BME280;8803;48.116;11.590;2024-03-23T03:49:21;94849.61;;;13.57;71.21
17373;BME280;8803;48.116;11.590;2024-03-23T03:53:40;94841.95;;;13.54;70.37
17373;BME280;8803;48.116;11.590;2024-03-23T03:57:58;94836.62;;;13.50;70.98
17373;BME280;8803;48.116;11.590;2024-03-23T04:02:18;94829.44;;;13.46;71.14
17373;BME280;8803;48.116;11.590;2024-03-23T04:06:35;94828.47;;;13.43;71.23
17373;BME280;8803;48.116;11.590;2024-03-23T04:10:52;94817.95;;;13.41;71.48
17373;BME280;8803;48.116;11.590;2024-03-23T04:15:11;94811.77;;;13.41;71.13
17373;BME280;8803;48.116;11.590;2024-03-23T04:19:30;94803.25;;;13.41;70.87
17373;BME280;8803;48.116;11.590;2024-03-23T04:23:50;94794.70;;;13.42;70.19
17373;BME280;8803;48.116;11.590;2024-03-23T04:28:08;94781.18;;;13.43;69.96
17373;BME280;8803;48.116;11.590;2024-03-23T04:32:28;94768.12;;;13.44;69.51
17373;BME280;8803;48.116;11.590;2024-03-23T04:36:48;94761.94;;;13.48;70.02
17373;BME280;8803;48.116;11.590;2024-03-23T04:41:07;94756.59;;;13.48;68.66
17373;BME280;8803;48.116;11.590;2024-03-23T04:45:26;94759.27;;;13.48;69.75
17373;BME280;8803;48.116;11.590;2024-03-23T04:49:42;94762.41;;;13.52;69.77
17373;BME280;8803;48.116;11.590;2024-03-23T04:54:01;94756.22;;;13.51;68.77
17373;BME280;8803;48.116;11.590;2024-03-23T04:58:23;94746.55;;;13.50;70.15
17373;BME280;8803;48.116;11.590;2024-03-23T05:00:28;94742.54;;;13.46;69.77
17373;BME280;8803;48.116;11.590;2024-03-23T05:04:47;94742.38;;;13.48;70.18
17373;BME280;8803;48.116;11.590;2024-03-23T05:09:05;94722.83;;;13.47;70.27
17373;BME280;8803;48.116;11.590;2024-03-23T05:13:26;94713.97;;;13.46;70.16
17373;BME280;8803;48.116;11.590;2024-03-23T05:15:31;94722.20;;;13.41;70.16
17373;BME280;8803;48.116;11.590;2024-03-23T05:19:52;94712.34;;;13.41;70.17
17373;BME280;8803;48.116;11.590;2024-03-23T05:24:12;94707.81;;;13.42;69.87
17373;BME280;8803;48.116;11.590;2024-03-23T05:28:29;94715.52;;;13.41;69.69
17373;BME280;8803;48.116;11.590;2024-03-23T05:32:46;94707.69;;;13.39;68.58
17373;BME280;8803;48.116;11.590;2024-03-23T05:37:05;94707.00;;;13.41;69.43
17373;BME280;8803;48.116;11.590;2024-03-23T05:41:24;94701.28;;;13.44;68.99
17373;BME280;8803;48.116;11.590;2024-03-23T05:45:44;94700.16;;;13.39;67.09
17373;BME280;8803;48.116;11.590;2024-03-23T05:50:01;94707.12;;;13.48;68.61
17373;BME280;8803;48.116;11.590;2024-03-23T05:54:24;94696.52;;;13.55;68.42
17373;BME280;8803;48.116;11.590;2024-03-23T05:58:43;94696.58;;;13.73;67.84
17373;BME280;8803;48.116;11.590;2024-03-23T06:03:05;94685.73;;;14.22;66.23
17373;BME280;8803;48.116;11.590;2024-03-23T06:07:23;94681.49;;;14.76;63.32
17373;BME280;8803;48.116;11.590;2024-03-23T06:11:44;94666.34;;;15.29;62.26
17373;BME280;8803;48.116;11.590;2024-03-23T06:16:05;94659.61;;;15.86;59.67
17373;BME280;8803;48.116;11.590;2024-03-23T06:20:22;94652.08;;;16.41;58.93
17373;BME280;8803;48.116;11.590;2024-03-23T06:24:44;94637.72;;;16.96;57.52
17373;BME280;8803;48.116;11.590;2024-03-23T06:29:04;94629.45;;;17.51;55.36
17373;BME280;8803;48.116;11.590;2024-03-23T06:33:24;94610.42;;;18.11;54.00
17373;BME280;8803;48.116;11.590;2024-03-23T06:37:42;94605.63;;;18.88;52.49
17373;BME280;8803;48.116;11.590;2024-03-23T06:42:04;94592.39;;;19.62;49.92
17373;BME280;8803;48.116;11.590;2024-03-23T06:44:12;94584.59;;;19.79;49.15
17373;BME280;8803;48.116;11.590;2024-03-23T06:48:31;94563.34;;;20.07;46.34
17373;BME280;8803;48.116;11.590;2024-03-23T06:50:37;94556.42;;;19.77;47.35
17373;BME280;8803;48.116;11.590;2024-03-23T06:54:58;94553.23;;;19.62;49.05
17373;BME280;8803;48.116;11.590;2024-03-23T06:59:24;94548.21;;;20.67;45.22
17373;BME280;8803;48.116;11.590;2024-03-23T07:03:41;94541.30;;;20.80;45.44
17373;BME280;8803;48.116;11.590;2024-03-23T07:08:01;94534.55;;;20.53;45.95
17373;BME280;8803;48.116;11.590;2024-03-23T07:12:30;94534.60;;;20.37;46.63
17373;BME280;8803;48.116;11.590;2024-03-23T07:14:38;94537.44;;;20.24;46.11
17373;BME280;8803;48.116;11.590;2024-03-23T07:19:02;94544.48;;;19.91;47.51
17373;BME280;8803;48.116;11.590;2024-03-23T07:23:23;94534.38;;;19.55;48.33
17373;BME280;8803;48.116;11.590;2024-03-23T07:27:44;94536.45;;;19.22;49.20
17373;BME280;8803;48.116;11.590;2024-03-23T07:29:49;94541.73;;;19.04;49.45
17373;BME280;8803;48.116;11.590;2024-03-23T07:34:10;94545.87;;;18.84;50.22
17373;BME280;8803;48.116;11.590;2024-03-23T07:38:28;94549.80;;;18.66;50.41
17373;BME280;8803;48.116;11.590;2024-03-23T07:40:33;94569.86;;;18.55;50.51
17373;BME280;8803;48.116;11.590;2024-03-23T07:44:53;94584.36;;;18.41;50.28
17373;BME280;8803;48.116;11.590;2024-03-23T07:49:16;94615.80;;;18.25;50.68
17373;BME280;8803;48.116;11.590;2024-03-23T07:53:37;94644.20;;;18.01;50.28
17373;BME280;8803;48.116;11.590;2024-03-23T07:57:55;94665.09;;;17.66;52.46
17373;BME280;8803;48.116;11.590;2024-03-23T08:02:14;94675.61;;;17.24;54.69
17373;BME280;8803;48.116;11.590;2024-03-23T08:06:43;94685.20;;;16.93;56.29
17373;BME280;8803;48.116;11.590;2024-03-23T08:08:51;94694.36;;;16.71;57.41
17373;BME280;8803;48.116;11.590;2024-03-23T08:11:00;94694.18;;;16.55;58.91
17373;BME280;8803;48.116;11.590;2024-03-23T08:15:19;94713.13;;;16.26;62.12
17373;BME280;8803;48.116;11.590;2024-03-23T08:17:24;94716.50;;;16.07;63.07
17373;BME280;8803;48.116;11.590;2024-03-23T08:21:48;94730.00;;;15.82;65.02
17373;BME280;8803;48.116;11.590;2024-03-23T08:26:13;94737.31;;;15.52;67.54
17373;BME280;8803;48.116;11.590;2024-03-23T08:30:36;94755.56;;;15.38;68.76
17373;BME280;8803;48.116;11.590;2024-03-23T08:34:55;94765.73;;;15.17;70.89
17373;BME280;8803;48.116;11.590;2024-03-23T08:39:13;94795.04;;;15.04;72.15
17373;BME280;8803;48.116;11.590;2024-03-23T08:43:35;94803.91;;;14.90;74.26
17373;BME280;8803;48.116;11.590;2024-03-23T08:47:56;94808.95;;;14.56;72.89
17373;BME280;8803;48.116;11.590;2024-03-23T08:52:16;94815.03;;;14.31;73.58
17373;BME280;8803;48.116;11.590;2024-03-23T08:56:33;94838.73;;;14.11;74.44
17373;BME280;8803;48.116;11.590;2024-03-23T09:01:02;94850.38;;;14.00;76.13
17373;BME280;8803;48.116;11.590;2024-03-23T09:07:34;94869.17;;;13.92;77.24
17373;BME280;8803;48.116;11.590;2024-03-23T09:11:52;94876.22;;;13.85;77.67
17373;BME280;8803;48.116;11.590;2024-03-23T09:16:11;94878.59;;;13.84;78.21
17373;BME280;8803;48.116;11.590;2024-03-23T09:20:31;94870.08;;;13.76;78.84
17373;BME280;8803;48.116;11.590;2024-03-23T09:24:51;94867.41;;;13.76;79.10
17373;BME280;8803;48.116;11.590;2024-03-23T09:29:09;94873.41;;;13.78;79.86
17373;BME280;8803;48.116;11.590;2024-03-23T09:33:31;94874.07;;;13.80;79.33
17373;BME280;8803;48.116;11.590;2024-03-23T09:37:52;94885.61;;;13.81;79.57
17373;BME280;8803;48.116;11.590;2024-03-23T09:42:12;94898.80;;;13.82;79.64
17373;BME280;8803;48.116;11.590;2024-03-23T09:46:32;94894.56;;;13.61;78.26
17373;BME280;8803;48.116;11.590;2024-03-23T09:50:53;94906.66;;;13.49;76.59
17373;BME280;8803;48.116;11.590;2024-03-23T09:55:11;94923.39;;;13.43;74.76
17373;BME280;8803;48.116;11.590;2024-03-23T09:59:36;94933.80;;;13.26;75.40
17373;BME280;8803;48.116;11.590;2024-03-23T10:03:59;94942.68;;;13.18;76.28
17373;BME280;8803;48.116;11.590;2024-03-23T10:06:05;94941.68;;;13.11;75.61
17373;BME280;8803;48.116;11.590;2024-03-23T10:10:34;94958.22;;;13.07;75.80
17373;BME280;8803;48.116;11.590;2024-03-23T10:14:55;94964.72;;;12.88;75.76
17373;BME280;8803;48.116;11.590;2024-03-23T10:19:32;94952.88;;;12.91;78.72
17373;BME280;8803;48.116;11.590;2024-03-23T10:23:51;94963.37;;;12.92;79.35
17373;BME280;8803;48.116;11.590;2024-03-23T10:25:56;94960.89;;;12.91;79.63
17373;BME280;8803;48.116;11.590;2024-03-23T10:30:18;94956.52;;;12.98;79.59
17373;BME280;8803;48.116;11.590;2024-03-23T10:34:40;94965.06;;;12.97;79.74
17373;BME280;8803;48.116;11.590;2024-03-23T10:39:00;94966.53;;;13.00;79.41
17373;BME280;8803;48.116;11.590;2024-03-23T10:43:20;94970.42;;;13.05;79.57
17373;BME280;8803;48.116;11.590;2024-03-23T10:47:39;94979.75;;;13.01;78.83
17373;BME280;8803;48.116;11.590;2024-03-23T10:52:04;95010.48;;;12.97;76.71
17373;BME280;8803;48.116;11.590;2024-03-23T10:56:25;95030.31;;;12.75;75.01
17373;BME280;8803;48.116;11.590;2024-03-23T11:00:44;95014.64;;;12.63;75.01
17373;BME280;8803;48.116;11.590;2024-03-23T11:02:50;95027.98;;;12.59;75.84
17373;BME280;8803;48.116;11.590;2024-03-23T11:07:33;95026.80;;;12.62;74.56
17373;BME280;8803;48.116;11.590;2024-03-23T11:11:56;95034.66;;;12.55;75.40
17373;BME280;8803;48.116;11.590;2024-03-23T11:16:17;95042.31;;;12.54;74.41
17373;BME280;8803;48.116;11.590;2024-03-23T11:20:37;95048.33;;;12.56;75.87
17373;BME280;8803;48.116;11.590;2024-03-23T11:25:01;95057.50;;;12.54;74.76
17373;BME280;8803;48.116;11.590;2024-03-23T11:27:18;95053.97;;;12.49;75.50
17373;BME280;8803;48.116;11.590;2024-03-23T11:31:38;95032.67;;;12.65;76.23
17373;BME280;8803;48.116;11.590;2024-03-23T11:35:55;95025.50;;;12.74;75.88
17373;BME280;8803;48.116;11.590;2024-03-23T11:40:26;95033.83;;;12.83;75.72
17373;BME280;8803;48.116;11.590;2024-03-23T11:44:45;95045.53;;;12.90;74.29
17373;BME280;8803;48.116;11.590;2024-03-23T11:49:02;95049.86;;;12.87;74.57
17373;BME280;8803;48.116;11.590;2024-03-23T11:53:27;95043.22;;;12.95;74.07
17373;BME280;8803;48.116;11.590;2024-03-23T11:57:45;95026.16;;;13.00;73.52
17373;BME280;8803;48.116;11.590;2024-03-23T12:04:28;95025.54;;;13.18;72.87
17373;BME280;8803;48.116;11.590;2024-03-23T12:11:13;95040.40;;;13.29;71.96
17373;BME280;8803;48.116;11.590;2024-03-23T12:13:23;95033.55;;;13.22;71.88
17373;BME280;8803;48.116;11.590;2024-03-23T12:15:28;95039.22;;;13.23;72.45
17373;BME280;8803;48.116;11.590;2024-03-23T12:19:49;95030.70;;;13.24;72.84
17373;BME280;8803;48.116;11.590;2024-03-23T12:24:11;95027.86;;;13.17;73.03
17373;BME280;8803;48.116;11.590;2024-03-23T12:26:17;95035.05;;;13.13;73.22
17373;BME280;8803;48.116;11.590;2024-03-23T12:30:41;95029.38;;;13.12;73.58
17373;BME280;8803;48.116;11.590;2024-03-23T12:35:00;95019.36;;;13.10;71.84
17373;BME280;8803;48.116;11.590;2024-03-23T12:39:20;95002.31;;;13.07;70.80
17373;BME280;8803;48.116;11.590;2024-03-23T12:43:38;95013.34;;;13.12;70.43
17373;BME280;8803;48.116;11.590;2024-03-23T12:48:01;95010.32;;;13.15;69.08
17373;BME280;8803;48.116;11.590;2024-03-23T12:52:22;95016.50;;;13.19;65.19
17373;BME280;8803;48.116;11.590;2024-03-23T12:56:43;95019.01;;;13.13;63.44
17373;BME280;8803;48.116;11.590;2024-03-23T12:58:48;95018.84;;;13.10;64.38
17373;BME280;8803;48.116;11.590;2024-03-23T13:00:54;95016.34;;;13.09;64.92
17373;BME280;8803;48.116;11.590;2024-03-23T13:05:15;95022.20;;;13.20;66.16
17373;BME280;8803;48.116;11.590;2024-03-23T13:09:35;95028.52;;;13.31;65.56
17373;BME280;8803;48.116;11.590;2024-03-23T13:13:56;95024.16;;;13.38;65.72
17373;BME280;8803;48.116;11.590;2024-03-23T13:18:13;95014.64;;;13.48;66.19
17373;BME280;8803;48.116;11.590;2024-03-23T13:22:36;95012.09;;;13.55;65.64
17373;BME280;8803;48.116;11.590;2024-03-23T13:24:41;94995.08;;;13.48;63.56
17373;BME280;8803;48.116;11.590;2024-03-23T13:26:51;94985.89;;;13.50;64.28
17373;BME280;8803;48.116;11.590;2024-03-23T13:31:16;94981.70;;;13.48;61.85
17373;BME280;8803;48.116;11.590;2024-03-23T13:35:37;94981.73;;;13.39;62.44
17373;BME280;8803;48.116;11.590;2024-03-23T13:39:57;94977.04;;;13.33;60.46
17373;BME280;8803;48.116;11.590;2024-03-23T13:44:20;94986.42;;;13.37;63.84
17373;BME280;8803;48.116;11.590;2024-03-23T13:48:42;94981.74;;;13.35;61.11
17373;BME280;8803;48.116;11.590;2024-03-23T13:50:47;94992.27;;;13.33;63.07
17373;BME280;8803;48.116;11.590;2024-03-23T13:55:07;94993.10;;;13.37;63.92
17373;BME280;8803;48.116;11.590;2024-03-23T13:59:28;94995.09;;;13.31;63.74
17373;BME280;8803;48.116;11.590;2024-03-23T14:03:59;95020.85;;;13.24;62.87
17373;BME280;8803;48.116;11.590;2024-03-23T14:08:22;95055.44;;;13.06;59.84
17373;BME280;8803;48.116;11.590;2024-03-23T14:12:43;95048.87;;;12.68;62.72
17373;BME280;8803;48.116;11.590;2024-03-23T14:14:50;95031.80;;;12.49;63.92
17373;BME280;8803;48.116;11.590;2024-03-23T14:19:11;95029.73;;;12.31;66.63
17373;BME280;8803;48.116;11.590;2024-03-23T14:23:30;95023.72;;;12.21;68.25
17373;BME280;8803;48.116;11.590;2024-03-23T14:27:50;95032.69;;;12.16;68.73
17373;BME280;8803;48.116;11.590;2024-03-23T14:32:10;95035.53;;;12.14;69.00
17373;BME280;8803;48.116;11.590;2024-03-23T14:36:33;95041.70;;;12.11;69.75
17373;BME280;8803;48.116;11.590;2024-03-23T14:38:39;95050.67;;;12.06;69.65
17373;BME280;8803;48.116;11.590;2024-03-23T14:40:45;95044.49;;;12.05;69.68
17373;BME280;8803;48.116;11.590;2024-03-23T14:45:10;95053.20;;;12.07;70.02
17373;BME280;8803;48.116;11.590;2024-03-23T14:49:36;95064.67;;;12.04;69.62
17373;BME280;8803;48.116;11.590;2024-03-23T14:53:54;95067.95;;;11.89;63.87
17373;BME280;8803;48.116;11.590;2024-03-23T14:58:11;95091.73;;;11.79;65.17
17373;BME280;8803;48.116;11.590;2024-03-23T15:02:31;95101.21;;;11.73;66.40
17373;BME280;8803;48.116;11.590;2024-03-23T15:04:37;95116.19;;;11.70;66.47
17373;BME280;8803;48.116;11.590;2024-03-23T15:06:44;95114.09;;;11.60;65.24
17373;BME280;8803;48.116;11.590;2024-03-23T15:11:06;95140.34;;;11.51;62.80
17373;BME280;8803;48.116;11.590;2024-03-23T15:15:26;95139.58;;;11.37;63.65
17373;BME280;8803;48.116;11.590;2024-03-23T15:19:46;95107.34;;;11.27;67.46
17373;BME280;8803;48.116;11.590;2024-03-23T15:24:11;95076.67;;;11.23;68.35
17373;BME280;8803;48.116;11.590;2024-03-23T15:28:31;95064.33;;;11.22;68.93
17373;BME280;8803;48.116;11.590;2024-03-23T15:30:44;95075.96;;;11.17;69.04
17373;BME280;8803;48.116;11.590;2024-03-23T15:35:12;95060.98;;;11.20;69.67
17373;BME280;8803;48.116;11.590;2024-03-23T15:37:21;95063.81;;;11.18;69.68
17373;BME280;8803;48.116;11.590;2024-03-23T15:41:42;95043.72;;;11.28;69.47
17373;BME280;8803;48.116;11.590;2024-03-23T15:46:03;95054.27;;;11.33;69.25
17373;BME280;8803;48.116;11.590;2024-03-23T15:48:12;95056.09;;;11.33;69.22
17373;BME280;8803;48.116;11.590;2024-03-23T15:52:32;95040.97;;;11.37;69.24
17373;BME280;8803;48.116;11.590;2024-03-23T15:54:38;95049.62;;;11.35;69.16
17373;BME280;8803;48.116;11.590;2024-03-23T15:56:45;95054.42;;;11.36;69.09
17373;BME280;8803;48.116;11.590;2024-03-23T16:03:22;95065.14;;;11.40;69.42
17373;BME280;8803;48.116;11.590;2024-03-23T16:07:40;95051.30;;;11.40;69.26
17373;BME280;8803;48.116;11.590;2024-03-23T16:11:57;95043.47;;;11.39;69.90
17373;BME280;8803;48.116;11.590;2024-03-23T16:16:19;95037.29;;;11.38;69.50
17373;BME280;8803;48.116;11.590;2024-03-23T16:20:40;95035.45;;;11.35;69.88
17373;BME280;8803;48.116;11.590;2024-03-23T16:25:01;95028.62;;;11.36;70.04
17373;BME280;8803;48.116;11.590;2024-03-23T16:29:22;95037.29;;;11.38;70.14
17373;BME280;8803;48.116;11.590;2024-03-23T16:33:40;95045.64;;;11.39;69.86
17373;BME280;8803;48.116;11.590;2024-03-23T16:37:58;95047.98;;;11.42;69.81
17373;BME280;8803;48.116;11.590;2024-03-23T16:42:29;95037.98;;;11.44;69.72
17373;BME280;8803;48.116;11.590;2024-03-23T16:44:36;95043.30;;;11.40;69.51
17373;BME280;8803;48.116;11.590;2024-03-23T16:48:59;95055.86;;;11.48;69.60
17373;BME280;8803;48.116;11.590;2024-03-23T16:53:20;95049.54;;;11.53;69.34
17373;BME280;8803;48.116;11.590;2024-03-23T16:57:39;95047.53;;;11.51;68.86
17373;BME280;8803;48.116;11.590;2024-03-23T17:01:58;95040.33;;;11.43;69.24
17373;BME280;8803;48.116;11.590;2024-03-23T17:06:20;95059.63;;;11.37;69.37
17373;BME280;8803;48.116;11.590;2024-03-23T17:10:43;95062.07;;;11.31;69.69
17373;BME280;8803;48.116;11.590;2024-03-23T17:15:13;95058.48;;;11.18;69.98
17373;BME280;8803;48.116;11.590;2024-03-23T17:19:30;95084.28;;;11.18;70.28
17373;BME280;8803;48.116;11.590;2024-03-23T17:23:47;95076.75;;;11.13;70.85
17373;BME280;8803;48.116;11.590;2024-03-23T17:28:07;95083.55;;;11.07;70.58
17373;BME280;8803;48.116;11.590;2024-03-23T17:30:19;95096.92;;;10.98;70.50
17373;BME280;8803;48.116;11.590;2024-03-23T17:34:37;95130.73;;;10.97;71.29
17373;BME280;8803;48.116;11.590;2024-03-23T17:39:08;95130.27;;;10.84;70.67
17373;BME280;8803;48.116;11.590;2024-03-23T17:43:32;95134.00;;;10.60;69.47
17373;BME280;8803;48.116;11.590;2024-03-23T17:47:54;95067.86;;;10.52;72.22
17373;BME280;8803;48.116;11.590;2024-03-23T17:52:17;95091.25;;;10.44;71.93
17373;BME280;8803;48.116;11.590;2024-03-23T17:56:38;95106.97;;;10.38;72.41
17373;BME280;8803;48.116;11.590;2024-03-23T18:03:20;95121.80;;;10.26;72.14
17373;BME280;8803;48.116;11.590;2024-03-23T18:07:42;95118.41;;;10.20;71.84
17373;BME280;8803;48.116;11.590;2024-03-23T18:12:07;95138.31;;;10.16;72.41
17373;BME280;8803;48.116;11.590;2024-03-23T18:16:30;95149.31;;;10.17;72.28
17373;BME280;8803;48.116;11.590;2024-03-23T18:18:37;95147.94;;;10.13;71.87
17373;BME280;8803;48.116;11.590;2024-03-23T18:20:44;95142.25;;;10.12;72.01
17373;BME280;8803;48.116;11.590;2024-03-23T18:25:03;95147.41;;;10.14;70.50
17373;BME280;8803;48.116;11.590;2024-03-23T18:29:24;95154.47;;;9.96;70.93
17373;BME280;8803;48.116;11.590;2024-03-23T18:33:47;95166.55;;;9.81;69.28
17373;BME280;8803;48.116;11.590;2024-03-23T18:38:13;95173.23;;;9.71;71.23
17373;BME280;8803;48.116;11.590;2024-03-23T18:42:30;95169.47;;;9.64;72.17
17373;BME280;8803;48.116;11.590;2024-03-23T18:44:37;95162.28;;;9.61;73.21
17373;BME280;8803;48.116;11.590;2024-03-23T18:48:59;95159.25;;;9.69;73.38
17373;BME280;8803;48.116;11.590;2024-03-23T18:53:24;95174.09;;;9.62;72.07
17373;BME280;8803;48.116;11.590;2024-03-23T18:57:47;95158.39;;;9.45;72.46
17373;BME280;8803;48.116;11.590;2024-03-23T19:02:08;95162.67;;;9.33;72.50
17373;BME280;8803;48.116;11.590;2024-03-23T19:06:30;95158.08;;;9.25;74.30
17373;BME280;8803;48.116;11.590;2024-03-23T19:08:37;95160.94;;;9.18;74.71
17373;BME280;8803;48.116;11.590;2024-03-23T19:12:56;95161.61;;;9.30;74.83
17373;BME280;8803;48.116;11.590;2024-03-23T19:17:15;95152.26;;;9.35;74.31
17373;BME280;8803;48.116;11.590;2024-03-23T19:19:23;95149.72;;;9.34;74.25
17373;BME280;8803;48.116;11.590;2024-03-23T19:26:03;95140.91;;;9.43;74.13
17373;BME280;8803;48.116;11.590;2024-03-23T19:30:24;95147.76;;;9.45;73.97
17373;BME280;8803;48.116;11.590;2024-03-23T19:32:31;95145.04;;;9.41;74.01
17373;BME280;8803;48.116;11.590;2024-03-23T19:34:41;95152.86;;;9.43;73.74
17373;BME280;8803;48.116;11.590;2024-03-23T19:39:03;95143.83;;;9.49;73.62
17373;BME280;8803;48.116;11.590;2024-03-23T19:43:25;95133.36;;;9.48;73.59
17373;BME280;8803;48.116;11.590;2024-03-23T19:47:49;95134.69;;;9.48;73.40
17373;BME280;8803;48.116;11.590;2024-03-23T19:52:08;95116.36;;;9.45;73.64
17373;BME280;8803;48.116;11.590;2024-03-23T19:56:32;95121.19;;;9.45;73.59
17373;BME280;8803;48.116;11.590;2024-03-23T19:58:40;95122.79;;;9.42;73.41
17373;BME280;8803;48.116;11.590;2024-03-23T20:02:59;95113.55;;;9.46;73.42
17373;BME280;8803;48.116;11.590;2024-03-23T20:07:24;95111.05;;;9.45;73.43
17373;BME280;8803;48.116;11.590;2024-03-23T20:11:46;95120.98;;;9.43;73.40
17373;BME280;8803;48.116;11.590;2024-03-23T20:16:08;95124.96;;;9.43;73.29
17373;BME280;8803;48.116;11.590;2024-03-23T20:18:15;95120.08;;;9.38;72.70
17373;BME280;8803;48.116;11.590;2024-03-23T20:22:37;95100.72;;;9.42;73.28
17373;BME280;8803;48.116;11.590;2024-03-23T20:26:59;95109.66;;;9.41;73.23
17373;BME280;8803;48.116;11.590;2024-03-23T20:31:20;95111.14;;;9.39;73.37
17373;BME280;8803;48.116;11.590;2024-03-23T20:33:26;95112.73;;;9.36;73.02
17373;BME280;8803;48.116;11.590;2024-03-23T20:37:45;95104.98;;;9.39;73.12
17373;BME280;8803;48.116;11.590;2024-03-23T20:42:06;95100.03;;;9.40;73.10
17373;BME280;8803;48.116;11.590;2024-03-23T20:46:29;95099.87;;;9.41;72.83
17373;BME280;8803;48.116;11.590;2024-03-23T20:48:36;95108.97;;;9.39;72.66
17373;BME280;8803;48.116;11.590;2024-03-23T20:52:57;95107.21;;;9.43;72.54
17373;BME280;8803;48.116;11.590;2024-03-23T20:57:21;95105.89;;;9.43;72.58
17373;BME280;8803;48.116;11.590;2024-03-23T21:01:39;95105.52;;;9.42;72.41
17373;BME280;8803;48.116;11.590;2024-03-23T21:06:04;95103.23;;;9.43;72.42
17373;BME280;8803;48.116;11.590;2024-03-23T21:10:27;95107.11;;;9.49;72.21
17373;BME280;8803;48.116;11.590;2024-03-23T21:12:34;95106.52;;;9.41;71.88
17373;BME280;8803;48.116;11.590;2024-03-23T21:16:55;95092.81;;;9.46;72.00
17373;BME280;8803;48.116;11.590;2024-03-23T21:21:18;95091.48;;;9.46;72.01
17373;BME280;8803;48.116;11.590;2024-03-23T21:25:44;95081.82;;;9.45;71.87
17373;BME280;8803;48.116;11.590;2024-03-23T21:30:09;95079.95;;;9.41;72.09
17373;BME280;8803;48.116;11.590;2024-03-23T21:34:31;95075.13;;;9.41;72.14
17373;BME280;8803;48.116;11.590;2024-03-23T21:36:38;95085.69;;;9.37;72.10
17373;BME280;8803;48.116;11.590;2024-03-23T21:41:03;95080.38;;;9.37;71.68
17373;BME280;8803;48.116;11.590;2024-03-23T21:45:26;95079.84;;;9.33;72.26
17373;BME280;8803;48.116;11.590;2024-03-23T21:49:45;95089.77;;;9.31;72.13
17373;BME280;8803;48.116;11.590;2024-03-23T21:54:03;95088.72;;;9.28;72.22
17373;BME280;8803;48.116;11.590;2024-03-23T21:58:26;95103.81;;;9.28;72.13
17373;BME280;8803;48.116;11.590;2024-03-23T22:00:34;95090.41;;;9.20;72.28
17373;BME280;8803;48.116;11.590;2024-03-23T22:04:56;95091.59;;;9.21;72.39
17373;BME280;8803;48.116;11.590;2024-03-23T22:09:22;95088.87;;;9.17;72.72
17373;BME280;8803;48.116;11.590;2024-03-23T22:13:44;95092.52;;;9.16;72.50
17373;BME280;8803;48.116;11.590;2024-03-23T22:18:16;95090.98;;;9.14;72.85
17373;BME280;8803;48.116;11.590;2024-03-23T22:22:42;95097.26;;;9.13;71.94
17373;BME280;8803;48.116;11.590;2024-03-23T22:27:04;95099.52;;;9.08;72.16